Hondarribia Gipuzkoa

latitud = 43° 21' 38''N | longitud = 001° 47' 14''W
4 metros sobre el nivel del mar | datos mensuales

Fecha, hora, temperatura, viento dirección y velocidad, humedad y presión.

  • 21-06-2018 22:00:00 | 21.30°C | Sudoeste |13.00 km/h | 87.00% | 1020.80 hPa
  • 21-06-2018 21:00:00 | 22.30°C | Sudoeste |13.00 km/h | 79.00% | 1020.60 hPa
  • 21-06-2018 20:00:00 | 23.30°C | Sudoeste |12.00 km/h | 74.00% | 1020.40 hPa
  • 21-06-2018 19:00:00 | 23.20°C | Oeste |13.00 km/h | 75.00% | 1020.30 hPa
  • 21-06-2018 18:00:00 | 23.40°C | Noroeste |10.00 km/h | 75.00% | 1020.30 hPa
  • 21-06-2018 17:00:00 | 22.80°C | Oeste |10.00 km/h | 76.00% | 1020.50 hPa
  • 21-06-2018 16:00:00 | 22.40°C | Noroeste |14.00 km/h | 79.00% | 1020.60 hPa
  • 21-06-2018 15:00:00 | 23.00°C | Noroeste |14.00 km/h | 77.00% | 1020.40 hPa
  • 21-06-2018 14:00:00 | 24.20°C | Noroeste |17.00 km/h | 71.00% | 1020.40 hPa
  • 21-06-2018 13:00:00 | 24.00°C | Noroeste |12.00 km/h | 73.00% | 1020.20 hPa
  • 21-06-2018 12:00:00 | 22.80°C | Norte |8.00 km/h | 77.00% | 1020.10 hPa
  • 21-06-2018 11:00:00 | 22.10°C | Nordeste |7.00 km/h | 81.00% | 1019.90 hPa
  • 21-06-2018 10:00:00 | 21.40°C | Sudeste |6.00 km/h | 82.00% | 1019.80 hPa
  • 21-06-2018 09:00:00 | 21.20°C | Sur |3.00 km/h | 83.00% | 1019.90 hPa
  • 21-06-2018 08:00:00 | 21.10°C | Noroeste |5.00 km/h | 82.00% | 1019.90 hPa
  • 21-06-2018 07:00:00 | 20.80°C | Oeste |6.00 km/h | 85.00% | 1019.80 hPa
  • 21-06-2018 06:00:00 | 0.00°C | 0 |0.00 km/h | 0.00% | 0.00 hPa
  • 21-06-2018 05:00:00 | 0.00°C | 0 |0.00 km/h | 0.00% | 0.00 hPa
  • 21-06-2018 04:00:00 | 0.00°C | 0 |0.00 km/h | 0.00% | 0.00 hPa
  • 21-06-2018 03:00:00 | 0.00°C | 0 |0.00 km/h | 0.00% | 0.00 hPa
  • 21-06-2018 02:00:00 | 0.00°C | 0 |0.00 km/h | 0.00% | 0.00 hPa
  • 21-06-2018 01:00:00 | 0.00°C | 0 |0.00 km/h | 0.00% | 0.00 hPa
  • 21-06-2018 00:00:00 | 0.00°C | 0 |0.00 km/h | 0.00% | 0.00 hPa
  • 20-06-2018 23:00:00 | 0.00°C | 0 |0.00 km/h | 0.00% | 0.00 hPa